Time;durP1;ratioP1;P1;durP2;ratioP2;P2;SDS_P1;SDS_P2;PMS_P1;PMS_P2;Temp;Humidity;BMP_temperature;BMP_pressure;BME280_temperature;BME280_humidity;BME280_pressure;Samples;Min_cycle;Max_cycle;Signal;HPM_P1;HPM_P2
2023/05/14 00:01:46;;;;;;;;;55.75;44.00;;;;;16.75;59.25;101479.59;4984579;28;52319;-67
2023/05/14 00:04:11;;;;;;;;;43.75;35.50;;;;;16.67;58.78;101478.56;4986575;28;45211;-62
2023/05/14 00:06:37;;;;;;;;;46.75;36.75;;;;;16.59;59.44;101480.28;4989635;28;52386;-73
2023/05/14 00:09:03;;;;;;;;;40.00;34.50;;;;;16.54;59.49;101474.81;4981048;28;44909;-66
2023/05/14 00:11:28;;;;;;;;;38.75;36.25;;;;;16.38;59.45;101462.00;4989386;28;45511;-68
2023/05/14 00:13:53;;;;;;;;;43.50;33.75;;;;;16.45;59.69;101485.50;4976260;28;45259;-62
2023/05/14 00:16:19;;;;;;;;;57.25;41.75;;;;;16.39;59.66;101475.50;4988708;28;45226;-66
2023/05/14 00:18:44;;;;;;;;;53.50;38.75;;;;;16.33;59.81;101474.50;4984173;27;45486;-65
2023/05/14 00:21:09;;;;;;;;;43.50;37.50;;;;;16.28;59.97;101468.16;4987689;28;46706;-67
2023/05/14 00:23:35;;;;;;;;;42.75;37.00;;;;;16.20;59.25;101441.06;4988410;28;45257;-64
2023/05/14 00:26:00;;;;;;;;;46.00;38.50;;;;;16.27;59.15;101466.31;4982390;28;45191;-67
2023/05/14 00:28:25;;;;;;;;;36.50;34.00;;;;;16.24;59.64;101460.91;4972045;28;45236;-65
2023/05/14 00:30:51;;;;;;;;;42.75;35.75;;;;;16.20;59.66;101462.63;4988207;28;50195;-67
2023/05/14 00:33:16;;;;;;;;;40.75;35.50;;;;;16.24;59.02;101466.31;4983271;28;45107;-67
2023/05/14 00:35:42;;;;;;;;;44.00;35.75;;;;;16.12;58.76;101435.59;4981812;28;45295;-63
2023/05/14 00:38:07;;;;;;;;;42.50;36.25;;;;;16.14;59.38;101451.78;4989433;28;45013;-65
2023/05/14 00:40:33;;;;;;;;;50.00;39.25;;;;;16.22;59.24;101463.59;4988746;28;45881;-64
2023/05/14 00:42:58;;;;;;;;;43.50;36.50;;;;;16.19;59.12;101460.84;4985198;28;45146;-64
2023/05/14 00:45:24;;;;;;;;;51.50;42.25;;;;;16.08;59.14;101452.56;4989666;28;45667;-62
2023/05/14 00:47:50;;;;;;;;;42.50;37.00;;;;;16.12;59.68;101462.53;4985565;28;45191;-66
2023/05/14 00:50:16;;;;;;;;;40.00;34.50;;;;;16.09;59.52;101451.72;5008655;28;45636;-63
2023/05/14 00:52:42;;;;;;;;;43.00;35.50;;;;;16.11;59.13;101451.72;4991246;27;45247;-63
2023/05/14 00:55:10;;;;;;;;;43.50;35.75;;;;;16.09;58.98;101449.00;4986845;28;45179;-63
2023/05/14 00:57:36;;;;;;;;;48.50;36.75;;;;;16.09;59.35;101453.50;4998387;28;45022;-65
2023/05/14 01:00:03;;;;;;;;;48.75;38.25;;;;;16.03;59.34;101441.72;4985163;28;45387;-63
2023/05/14 01:02:28;;;;;;;;;42.50;35.75;;;;;15.90;59.33;101438.81;4998231;27;45171;-62
2023/05/14 01:04:54;;;;;;;;;45.25;35.75;;;;;15.90;59.85;101447.81;4985436;28;45181;-61
2023/05/14 01:07:32;;;;;;;;;49.00;38.00;;;;;15.87;59.72;101450.44;4984848;28;44950;-63
2023/05/14 01:10:23;;;;;;;;;42.00;36.50;;;;;15.87;59.68;101446.84;4987024;28;45088;-63
2023/05/14 01:13:06;;;;;;;;;49.75;39.00;;;;;15.86;59.63;101445.06;5034146;27;45277;-65
2023/05/14 01:15:33;;;;;;;;;43.00;34.50;;;;;15.84;60.00;101435.16;4981679;28;45163;-61
2023/05/14 01:18:09;;;;;;;;;44.50;37.25;;;;;15.71;59.60;101422.34;4978796;28;45424;-61
2023/05/14 01:20:35;;;;;;;;;48.25;38.25;;;;;15.77;59.57;101438.66;4987148;28;45905;-62
2023/05/14 01:23:01;;;;;;;;;45.50;38.00;;;;;15.79;59.68;101454.84;4987600;28;44909;-64
2023/05/14 01:25:26;;;;;;;;;47.00;37.50;;;;;15.75;59.54;101450.22;4988266;28;45161;-64
2023/05/14 01:27:56;;;;;;;;;46.00;35.50;;;;;15.78;59.61;101455.72;4981681;28;45194;-61
2023/05/14 01:30:30;;;;;;;;;44.25;37.00;;;;;15.71;59.73;101451.97;4988273;28;46112;-63
2023/05/14 01:32:59;;;;;;;;;49.25;37.00;;;;;15.76;59.70;101462.88;4991549;28;45237;-64
2023/05/14 01:35:27;;;;;;;;;53.75;42.75;;;;;15.71;60.22;101453.78;4980187;28;45144;-62
2023/05/14 01:37:56;;;;;;;;;47.00;38.00;;;;;15.63;59.80;101430.28;4976397;28;44950;-62
2023/05/14 01:40:22;;;;;;;;;49.50;38.25;;;;;15.77;59.75;101451.19;4985720;28;45376;-62
2023/05/14 01:42:50;;;;;;;;;49.25;38.50;;;;;15.77;59.50;101448.50;4982211;28;45290;-63
2023/05/14 01:45:16;;;;;;;;;46.50;38.00;;;;;15.73;59.78;101441.22;4981077;28;45197;-69
2023/05/14 01:47:41;;;;;;;;;50.00;38.25;;;;;15.63;59.75;101430.28;4977698;28;45205;-64
2023/05/14 01:50:07;;;;;;;;;44.25;36.50;;;;;15.68;59.33;101445.63;4980970;28;45565;-65
2023/05/14 01:52:32;;;;;;;;;52.00;38.75;;;;;15.77;59.22;101453.88;4980465;28;45155;-69
2023/05/14 01:54:58;;;;;;;;;47.75;36.75;;;;;15.73;59.66;101455.59;4986047;28;45344;-62
2023/05/14 01:57:24;;;;;;;;;52.25;39.25;;;;;15.62;59.39;101438.34;4985368;28;45384;-65
2023/05/14 01:59:50;;;;;;;;;48.75;40.75;;;;;15.70;59.38;101457.34;4997936;28;47731;-63
2023/05/14 02:02:15;;;;;;;;;50.25;38.50;;;;;15.61;59.60;101436.56;4984040;28;45079;-70
2023/05/14 02:04:40;;;;;;;;;43.50;37.00;;;;;15.68;59.63;101453.72;4985779;28;45207;-63
2023/05/14 02:07:06;;;;;;;;;46.00;38.25;;;;;15.56;59.83;101449.94;4985766;28;45137;-61
2023/05/14 02:09:31;;;;;;;;;44.25;35.25;;;;;15.48;60.07;101440.81;5011455;28;45557;-62
2023/05/14 02:11:56;;;;;;;;;52.00;40.25;;;;;15.52;59.95;101448.03;4980573;28;45115;-61
2023/05/14 02:14:22;;;;;;;;;45.75;37.50;;;;;15.40;59.51;101435.28;4985370;28;45485;-61
2023/05/14 02:16:47;;;;;;;;;45.50;36.50;;;;;15.45;59.93;101451.53;4973351;28;45084;-64
2023/05/14 02:19:12;;;;;;;;;49.75;40.25;;;;;15.47;60.36;101450.66;4985088;28;64848;-67
2023/05/14 02:21:38;;;;;;;;;48.75;37.50;;;;;15.46;59.87;101451.56;4982345;28;45192;-63
2023/05/14 02:24:04;;;;;;;;;48.75;39.25;;;;;15.46;60.24;101454.25;4985610;28;45318;-70
2023/05/14 02:26:29;;;;;;;;;48.50;38.50;;;;;15.41;60.35;101453.25;4982698;28;45130;-67
2023/05/14 02:28:54;;;;;;;;;48.00;37.75;;;;;15.34;59.92;101448.63;4987014;28;45763;-62
2023/05/14 02:31:20;;;;;;;;;49.50;38.00;;;;;15.24;60.79;101444.84;4977308;28;60869;-66
2023/05/14 02:33:45;;;;;;;;;46.50;37.50;;;;;15.19;60.83;101437.59;4982130;28;45139;-62
2023/05/14 02:36:11;;;;;;;;;47.50;37.00;;;;;15.21;60.99;101446.59;4977603;28;45179;-63
2023/05/14 02:38:36;;;;;;;;;47.75;38.00;;;;;15.05;61.37;101423.88;4981251;28;46369;-61
2023/05/14 02:41:01;;;;;;;;;51.75;38.50;;;;;15.17;61.25;101444.75;4986748;28;45065;-61
2023/05/14 02:43:27;;;;;;;;;47.00;36.25;;;;;15.17;61.19;101448.31;4987289;28;45152;-63
2023/05/14 02:45:52;;;;;;;;;51.50;38.25;;;;;15.11;61.03;101437.44;4983174;28;45159;-62
2023/05/14 02:48:17;;;;;;;;;49.50;37.50;;;;;15.08;61.45;101432.91;4990656;28;45288;-62
2023/05/14 02:50:43;;;;;;;;;51.75;37.25;;;;;15.05;61.64;101435.56;4988418;27;45159;-62
2023/05/14 02:53:08;;;;;;;;;46.50;37.75;;;;;15.10;61.63;101439.22;4987200;28;45093;-66
2023/05/14 02:55:35;;;;;;;;;48.50;39.75;;;;;15.16;61.16;101442.91;4992680;28;45088;-64
2023/05/14 02:58:00;;;;;;;;;52.25;39.25;;;;;15.12;61.20;101425.81;4989647;28;46035;-65
2023/05/14 03:00:25;;;;;;;;;48.75;38.75;;;;;15.04;61.27;101411.31;4989034;28;51179;-66
2023/05/14 03:02:51;;;;;;;;;47.75;37.75;;;;;15.05;61.62;101427.47;4988885;27;44994;-63
2023/05/14 03:05:16;;;;;;;;;49.25;36.75;;;;;15.11;60.86;101437.44;4986710;28;45303;-68
2023/05/14 03:07:41;;;;;;;;;51.00;39.75;;;;;15.12;61.07;101439.25;4976006;28;45976;-64
2023/05/14 03:10:07;;;;;;;;;47.50;36.00;;;;;15.16;61.58;101441.13;4989311;28;49324;-73
2023/05/14 03:12:32;;;;;;;;;44.75;36.00;;;;;15.19;60.95;101437.59;4988185;28;45419;-63
2023/05/14 03:14:58;;;;;;;;;45.00;37.00;;;;;15.20;61.30;101443.00;4986160;28;45313;-68
2023/05/14 03:17:23;;;;;;;;;49.50;38.75;;;;;15.16;61.17;101438.44;4990295;28;45702;-65
2023/05/14 03:19:48;;;;;;;;;43.75;36.00;;;;;15.14;61.20;101439.28;4990304;28;56777;-69
2023/05/14 03:22:14;;;;;;;;;45.50;36.75;;;;;15.07;61.64;101435.59;4976844;28;45120;-64
2023/05/14 03:24:39;;;;;;;;;47.25;38.75;;;;;15.08;61.63;101445.47;4982731;28;45106;-69
2023/05/14 03:27:05;;;;;;;;;45.00;38.00;;;;;15.01;61.76;101436.34;4988835;28;46206;-69
2023/05/14 03:29:30;;;;;;;;;47.50;39.50;;;;;14.99;61.58;101430.03;4988213;28;45123;-66
2023/05/14 03:31:56;;;;;;;;;53.00;39.25;;;;;15.05;61.37;101440.03;4987960;28;45204;-67
2023/05/14 03:34:21;;;;;;;;;46.00;37.75;;;;;15.03;61.66;101441.75;4989651;28;45236;-66
2023/05/14 03:36:47;;;;;;;;;46.00;34.75;;;;;14.92;61.60;101426.34;4988048;28;45930;-61
2023/05/14 03:39:18;;;;;;;;;51.75;37.50;;;;;15.06;61.49;101440.06;4980561;28;54005;-65
2023/05/14 03:41:44;;;;;;;;;45.00;36.00;;;;;15.09;61.49;101442.78;5011964;28;45471;-69
2023/05/14 03:44:09;;;;;;;;;46.75;36.50;;;;;15.16;61.04;101437.53;4970508;28;45275;-65
2023/05/14 03:46:34;;;;;;;;;43.50;35.75;;;;;15.13;61.19;101446.47;4971611;28;46146;-68
2023/05/14 03:49:00;;;;;;;;;40.00;34.25;;;;;15.09;61.24;101440.09;4989987;28;48618;-66
2023/05/14 03:51:25;;;;;;;;;42.00;35.00;;;;;15.08;61.33;101438.31;4972584;28;45455;-69
2023/05/14 03:53:50;;;;;;;;;42.25;34.50;;;;;15.05;61.22;101435.56;4987592;28;45619;-73
2023/05/14 03:56:16;;;;;;;;;45.25;35.00;;;;;15.05;61.50;101440.94;4976622;28;46080;-68
2023/05/14 03:58:41;;;;;;;;;46.00;35.00;;;;;15.04;61.25;101439.09;4983313;28;45104;-63
2023/05/14 04:01:07;;;;;;;;;44.75;36.00;;;;;15.05;61.58;101449.00;5007330;28;45158;-69
2023/05/14 04:03:32;;;;;;;;;48.50;33.00;;;;;15.02;61.54;101451.63;4996734;27;45265;-74
2023/05/14 04:05:57;;;;;;;;;38.75;33.25;;;;;14.97;61.69;101439.88;4986878;28;46985;-70
2023/05/14 04:08:23;;;;;;;;;52.75;38.50;;;;;14.97;61.84;101444.38;4981307;28;45108;-74
2023/05/14 04:10:49;;;;;;;;;43.25;34.25;;;;;14.95;62.08;101448.78;4985455;28;45158;-66
2023/05/14 04:13:14;;;;;;;;;41.75;34.50;;;;;14.96;61.72;101453.31;4980715;28;45040;-64
2023/05/14 04:15:39;;;;;;;;;49.00;37.50;;;;;14.95;62.07;101454.16;4978472;28;46623;-70
2023/05/14 04:18:05;;;;;;;;;41.25;33.00;;;;;14.95;62.06;101447.03;4959383;28;45559;-67
2023/05/14 04:20:30;;;;;;;;;38.75;31.75;;;;;14.90;62.06;101441.53;4978617;28;55361;-71
2023/05/14 04:22:56;;;;;;;;;47.25;36.75;;;;;14.81;61.98;101419.81;4988308;28;45056;-68
2023/05/14 04:25:21;;;;;;;;;39.00;34.75;;;;;14.94;62.13;101445.19;4981800;28;45453;-63
2023/05/14 04:27:46;;;;;;;;;50.75;36.75;;;;;14.90;62.40;101446.03;4974056;28;45187;-63
2023/05/14 04:30:12;;;;;;;;;35.50;30.25;;;;;14.88;61.76;101450.44;4983633;28;45108;-68
2023/05/14 04:32:38;;;;;;;;;48.00;36.25;;;;;14.86;62.60;101446.81;4978671;28;45448;-65
2023/05/14 04:35:04;;;;;;;;;46.50;35.50;;;;;14.83;62.71;101445.00;4985378;28;45673;-61
2023/05/14 04:37:30;;;;;;;;;51.00;38.75;;;;;14.86;62.80;101453.09;4989644;28;45034;-61
2023/05/14 04:39:55;;;;;;;;;48.00;34.75;;;;;14.85;62.54;101451.31;4989472;28;45237;-64
2023/05/14 04:42:21;;;;;;;;;39.00;33.25;;;;;14.88;62.59;101467.53;4990209;28;45253;-62
2023/05/14 04:44:46;;;;;;;;;43.75;32.25;;;;;14.72;62.99;101449.25;4989761;28;45182;-67
2023/05/14 04:47:11;;;;;;;;;39.75;35.00;;;;;14.78;62.93;101461.91;4985822;28;45105;-62
2023/05/14 04:49:36;;;;;;;;;45.00;34.00;;;;;14.70;62.72;101438.47;4978721;28;55564;-63
2023/05/14 04:52:02;;;;;;;;;40.00;34.75;;;;;14.72;63.31;101449.25;4989948;28;45266;-61
2023/05/14 04:54:27;;;;;;;;;45.75;35.00;;;;;14.66;63.50;101443.75;4989175;28;45143;-62
2023/05/14 04:56:54;;;;;;;;;40.75;35.50;;;;;14.63;63.21;101435.59;4985745;28;45079;-65
2023/05/14 04:59:20;;;;;;;;;47.00;36.00;;;;;14.65;63.44;101450.91;4988117;28;45028;-61
2023/05/14 05:01:45;;;;;;;;;41.75;33.75;;;;;14.64;63.51;101437.44;4989618;28;45127;-61
2023/05/14 05:04:11;;;;;;;;;47.00;35.25;;;;;14.68;63.57;101445.59;4982180;28;45115;-61
2023/05/14 05:06:36;;;;;;;;;47.25;36.75;;;;;14.68;63.56;101441.97;4982790;28;45411;-63
2023/05/14 05:09:01;;;;;;;;;50.25;37.75;;;;;14.66;63.92;101441.03;4985244;28;55909;-65
2023/05/14 05:11:27;;;;;;;;;47.75;36.25;;;;;14.66;63.47;101425.81;4986999;28;45270;-64
2023/05/14 05:13:52;;;;;;;;;46.50;34.25;;;;;14.66;63.56;101428.50;4959918;28;48087;-62
2023/05/14 05:16:17;;;;;;;;;42.50;35.25;;;;;14.77;63.54;101447.56;4987405;28;48121;-69
2023/05/14 05:18:44;;;;;;;;;43.25;36.25;;;;;14.79;63.58;101439.53;4983774;27;45066;-64
2023/05/14 05:21:09;;;;;;;;;45.75;35.50;;;;;14.74;63.54;101439.41;4982301;28;45150;-65
2023/05/14 05:23:35;;;;;;;;;42.75;32.50;;;;;14.72;63.50;101434.00;4988685;28;47863;-62
2023/05/14 05:26:00;;;;;;;;;45.25;35.75;;;;;14.72;63.49;101427.72;4984975;28;45039;-63
2023/05/14 05:28:26;;;;;;;;;45.00;35.00;;;;;14.79;63.46;101439.53;4980098;28;45329;-67
2023/05/14 05:30:51;;;;;;;;;47.75;38.00;;;;;14.78;63.45;101441.28;4987576;28;45284;-61
2023/05/14 05:33:17;;;;;;;;;45.75;35.00;;;;;14.81;63.54;101441.34;4986986;28;45866;-67
2023/05/14 05:35:43;;;;;;;;;44.50;34.25;;;;;14.84;63.53;101445.91;4987202;28;45426;-61
2023/05/14 05:38:08;;;;;;;;;48.00;34.50;;;;;14.82;63.56;101450.34;4980171;28;45461;-68
2023/05/14 05:40:34;;;;;;;;;45.00;36.50;;;;;14.80;62.84;101447.63;4984666;28;44979;-66
2023/05/14 05:42:59;;;;;;;;;44.75;36.00;;;;;14.89;62.98;101455.88;4981253;28;45450;-61
2023/05/14 05:45:25;;;;;;;;;67.50;52.25;;;;;14.91;63.21;101459.50;4989164;28;45142;-62
2023/05/14 05:47:50;;;;;;;;;46.75;37.25;;;;;14.78;63.14;101446.66;4989068;27;45032;-66
2023/05/14 05:50:15;;;;;;;;;47.50;37.50;;;;;14.95;62.80;101462.22;4988077;28;44996;-62
2023/05/14 05:52:41;;;;;;;;;45.00;35.25;;;;;15.00;62.40;101471.34;4986586;28;45428;-62
2023/05/14 05:55:06;;;;;;;;;45.50;32.75;;;;;14.97;62.43;101468.59;4973430;28;45320;-64
2023/05/14 05:57:32;;;;;;;;;48.50;36.75;;;;;14.96;62.37;101469.44;4977812;28;45685;-65
2023/05/14 05:59:57;;;;;;;;;48.75;38.25;;;;;14.97;62.65;101476.66;4986361;28;45508;-70
2023/05/14 06:02:23;;;;;;;;;47.00;35.50;;;;;14.96;62.10;101470.34;4988152;28;45165;-62
2023/05/14 06:04:49;;;;;;;;;49.00;36.50;;;;;14.93;62.46;101473.91;4988535;28;45094;-69
2023/05/14 06:07:14;;;;;;;;;45.75;36.00;;;;;14.93;62.55;101476.59;4988774;28;45008;-62
2023/05/14 06:09:40;;;;;;;;;41.25;34.00;;;;;14.90;62.45;101467.56;4987448;28;45122;-62
2023/05/14 06:12:05;;;;;;;;;48.75;35.00;;;;;14.90;62.77;101479.22;4983462;28;46852;-62
2023/05/14 06:14:31;;;;;;;;;47.00;35.50;;;;;14.91;62.60;101482.81;5002366;28;45061;-63
2023/05/14 06:16:57;;;;;;;;;47.75;38.00;;;;;14.89;62.56;101481.88;4976982;28;45267;-66
2023/05/14 06:19:22;;;;;;;;;45.50;35.25;;;;;14.85;62.68;101478.22;4976614;28;45207;-65
2023/05/14 06:21:48;;;;;;;;;48.50;35.00;;;;;14.82;62.71;101471.88;4986122;28;47579;-68
2023/05/14 06:24:13;;;;;;;;;45.25;37.25;;;;;14.93;62.67;101495.41;4988990;28;45289;-63
2023/05/14 06:26:38;;;;;;;;;48.25;38.00;;;;;14.93;62.72;101499.88;4976343;28;44949;-62
2023/05/14 06:29:04;;;;;;;;;49.50;35.00;;;;;14.95;62.03;101500.84;4978859;28;45670;-65
2023/05/14 06:31:29;;;;;;;;;51.00;36.00;;;;;14.92;62.21;101504.34;4981960;28;45294;-64
2023/05/14 06:33:55;;;;;;;;;44.00;35.25;;;;;14.92;62.24;101492.69;5003924;28;45434;-64
2023/05/14 06:36:20;;;;;;;;;44.25;36.25;;;;;14.95;62.49;101500.84;4979337;28;45145;-61
2023/05/14 06:38:46;;;;;;;;;44.75;36.00;;;;;14.95;62.42;101498.16;4989146;28;45297;-63
2023/05/14 06:41:11;;;;;;;;;47.00;37.50;;;;;14.93;62.47;101508.88;4977557;28;45542;-65
2023/05/14 06:43:36;;;;;;;;;37.75;32.75;;;;;14.90;62.42;101499.84;4966310;28;45371;-63
2023/05/14 06:46:02;;;;;;;;;46.50;36.00;;;;;14.84;62.36;101495.22;4979223;28;45311;-62
2023/05/14 06:48:28;;;;;;;;;41.25;35.50;;;;;14.89;62.74;101515.06;4975256;28;45405;-66
2023/05/14 06:50:54;;;;;;;;;45.25;36.00;;;;;14.82;62.60;101512.22;4975315;28;46958;-62
2023/05/14 06:53:20;;;;;;;;;38.00;32.50;;;;;14.81;62.46;101507.72;4987613;28;45165;-64
2023/05/14 06:55:48;;;;;;;;;50.25;38.50;;;;;14.72;62.41;101486.91;4984742;28;45060;-68
2023/05/14 06:58:14;;;;;;;;;43.25;35.00;;;;;14.85;62.40;101505.13;4973227;28;45453;-62
2023/05/14 07:00:39;;;;;;;;;42.25;33.00;;;;;14.90;62.56;101500.72;4968174;28;45912;-64
2023/05/14 07:03:04;;;;;;;;;46.75;36.00;;;;;14.88;62.20;101505.19;4965175;28;45323;-69
2023/05/14 07:05:30;;;;;;;;;37.75;32.50;;;;;14.92;62.05;101508.84;4969423;28;45521;-64
2023/05/14 07:07:56;;;;;;;;;35.75;31.50;;;;;14.87;61.55;101497.09;4967307;28;46007;-65
2023/05/14 07:10:21;;;;;;;;;37.25;31.75;;;;;14.92;61.86;101501.66;4978697;28;45252;-65
2023/05/14 07:12:47;;;;;;;;;38.50;33.75;;;;;14.90;61.48;101506.13;4961013;28;45413;-63
2023/05/14 07:15:16;;;;;;;;;44.50;35.50;;;;;14.99;61.69;101500.00;4981069;28;46295;-65
2023/05/14 07:17:41;;;;;;;;;45.50;35.75;;;;;15.01;61.80;101509.00;4980798;28;45274;-66
2023/05/14 07:20:07;;;;;;;;;43.50;35.00;;;;;14.96;61.48;101504.44;4988091;28;46334;-66
2023/05/14 07:22:32;;;;;;;;;45.75;35.75;;;;;14.84;61.67;101505.09;4984723;28;45080;-65
2023/05/14 07:24:57;;;;;;;;;46.00;36.00;;;;;14.88;61.75;101504.25;4972271;28;45986;-66
2023/05/14 07:27:23;;;;;;;;;43.50;35.75;;;;;14.91;61.92;101517.78;4976786;28;45947;-63
2023/05/14 07:29:49;;;;;;;;;47.75;37.75;;;;;14.91;61.70;101513.31;4982749;28;45230;-69
2023/05/14 07:32:14;;;;;;;;;50.25;37.75;;;;;14.92;61.65;101517.81;4980928;28;45266;-66
2023/05/14 07:34:40;;;;;;;;;49.00;36.75;;;;;14.92;61.62;101514.22;4981463;28;45051;-65
2023/05/14 07:37:05;;;;;;;;;68.25;51.25;;;;;14.95;61.34;101525.06;4979947;28;45158;-65
2023/05/14 07:39:30;;;;;;;;;52.50;39.50;;;;;14.83;61.27;101501.50;4997075;28;45143;-64
2023/05/14 07:41:56;;;;;;;;;51.00;37.50;;;;;14.90;61.42;101515.97;4981149;28;45312;-72
2023/05/14 07:44:21;;;;;;;;;53.00;39.00;;;;;14.92;61.62;101515.13;4980048;28;45168;-68
2023/05/14 07:46:47;;;;;;;;;52.25;38.00;;;;;14.92;61.44;101528.56;4977460;28;45245;-66
2023/05/14 07:49:12;;;;;;;;;44.50;35.75;;;;;14.96;61.27;101513.41;4975348;28;45294;-64
2023/05/14 07:51:38;;;;;;;;;49.50;36.75;;;;;15.03;61.62;101514.44;4984375;28;45385;-67
2023/05/14 07:54:03;;;;;;;;;49.50;38.00;;;;;15.08;61.17;101512.75;4977394;28;45405;-63
2023/05/14 07:56:29;;;;;;;;;49.00;38.75;;;;;14.97;61.18;101485.63;5000425;27;45123;-68
2023/05/14 07:58:54;;;;;;;;;56.25;40.00;;;;;15.04;61.15;101506.38;4981188;28;46102;-69
2023/05/14 08:01:20;;;;;;;;;48.50;40.00;;;;;15.07;61.18;101514.53;4981700;28;45312;-65
2023/05/14 08:03:45;;;;;;;;;51.25;39.50;;;;;15.06;61.21;101511.81;4972047;28;45481;-65
2023/05/14 08:06:11;;;;;;;;;50.75;38.75;;;;;15.02;60.79;101496.50;4985378;28;45095;-70
2023/05/14 08:08:36;;;;;;;;;50.00;38.25;;;;;15.00;61.03;101484.78;4988919;28;45312;-65
2023/05/14 08:11:02;;;;;;;;;53.75;39.25;;;;;15.04;61.20;101487.56;4987635;28;54670;-64
2023/05/14 08:13:27;;;;;;;;;46.50;37.00;;;;;15.09;60.96;101503.78;4987925;28;45181;-66
2023/05/14 08:15:53;;;;;;;;;47.50;35.00;;;;;15.07;60.77;101509.16;4984021;28;45134;-70
2023/05/14 08:18:18;;;;;;;;;43.00;33.25;;;;;14.96;60.52;101483.78;4974332;28;45342;-64
2023/05/14 08:20:43;;;;;;;;;51.75;39.25;;;;;15.11;60.35;101516.41;4989034;28;45931;-66
2023/05/14 08:23:10;;;;;;;;;35.00;32.00;;;;;15.15;59.61;101522.75;4990329;28;45103;-68
2023/05/14 08:25:35;;;;;;;;;46.75;36.50;;;;;15.21;59.93;101521.97;4989671;28;45126;-65
2023/05/14 08:28:01;;;;;;;;;49.00;36.25;;;;;15.23;59.85;101518.44;4985718;28;46437;-70
2023/05/14 08:30:27;;;;;;;;;51.50;38.25;;;;;15.02;60.14;101472.25;4986646;28;44986;-66
2023/05/14 08:32:53;;;;;;;;;50.50;36.75;;;;;15.31;60.00;101529.38;4981209;28;45267;-69
2023/05/14 08:35:18;;;;;;;;;47.25;36.25;;;;;15.27;59.82;101517.59;4979247;28;45524;-69
2023/05/14 08:37:44;;;;;;;;;48.00;36.25;;;;;15.35;59.73;101516.88;4983325;28;45444;-68
2023/05/14 08:40:11;;;;;;;;;44.25;37.50;;;;;15.28;60.39;101526.63;4978518;28;45331;-70
2023/05/14 08:42:40;;;;;;;;;46.00;37.00;;;;;15.27;60.10;101527.47;4974412;28;45500;-66
2023/05/14 08:45:18;;;;;;;;;43.75;33.00;;;;;15.21;60.53;101520.19;4976180;28;45398;-67
2023/05/14 08:47:48;;;;;;;;;49.00;38.50;;;;;15.06;60.76;101507.34;4971752;28;45967;-68
2023/05/14 08:50:13;;;;;;;;;45.00;35.75;;;;;15.21;60.91;101525.59;5008811;28;44995;-65
2023/05/14 08:52:39;;;;;;;;;48.75;37.25;;;;;15.27;60.22;101536.44;4982898;28;44990;-68
2023/05/14 08:55:05;;;;;;;;;45.75;35.25;;;;;15.32;60.50;101531.16;4988358;28;45082;-67
2023/05/14 08:57:34;;;;;;;;;49.50;37.50;;;;;15.34;60.09;101531.19;4979481;28;46405;-64
2023/05/14 09:00:03;;;;;;;;;46.00;34.25;;;;;15.33;60.20;101530.31;4967279;28;45458;-68
2023/05/14 09:02:30;;;;;;;;;51.25;39.50;;;;;15.33;60.12;101532.06;4983615;28;45370;-63
2023/05/14 09:04:58;;;;;;;;;68.00;47.50;;;;;15.34;60.03;101532.09;4995083;27;45259;-64
2023/05/14 09:07:24;;;;;;;;;43.50;32.75;;;;;15.27;59.59;101522.09;4988653;27;45234;-69
2023/05/14 09:09:53;;;;;;;;;42.00;31.25;;;;;15.28;59.39;101524.81;4986824;28;45210;-68
2023/05/14 09:12:19;;;;;;;;;185.50;165.75;;;;;15.33;59.54;101515.91;4978888;28;45053;-69
2023/05/14 09:14:46;;;;;;;;;46.75;35.25;;;;;15.41;59.44;101519.66;4984085;28;45514;-69
2023/05/14 09:17:12;;;;;;;;;39.25;34.00;;;;;15.42;60.10;101518.78;4974054;28;45685;-67
2023/05/14 09:19:42;;;;;;;;;39.00;34.75;;;;;15.48;59.73;101516.22;4986175;28;45388;-64
2023/05/14 09:22:10;;;;;;;;;45.50;35.50;;;;;15.51;59.77;101528.81;4976361;28;45428;-71
2023/05/14 09:24:37;;;;;;;;;44.25;35.50;;;;;15.55;60.20;101517.25;4983739;28;45275;-71
2023/05/14 09:27:04;;;;;;;;;40.00;34.00;;;;;15.57;59.88;101520.84;4978559;28;45689;-70
2023/05/14 09:29:30;;;;;;;;;43.00;34.00;;;;;15.65;60.64;101521.91;4986621;28;45366;-65
2023/05/14 09:31:57;;;;;;;;;45.00;36.75;;;;;15.61;60.72;101506.59;4975085;28;45242;-69
2023/05/14 09:34:31;;;;;;;;;46.00;37.75;;;;;15.70;59.79;101511.22;4980163;28;45111;-74
2023/05/14 09:36:57;;;;;;;;;50.00;38.75;;;;;15.72;59.57;101514.84;4982713;28;45926;-71
2023/05/14 09:39:24;;;;;;;;;46.25;37.75;;;;;15.75;60.08;101515.78;4976310;28;45354;-70
2023/05/14 09:41:53;;;;;;;;;48.00;38.50;;;;;15.64;59.39;101499.47;4986792;28;45442;-64
2023/05/14 09:44:19;;;;;;;;;44.75;35.25;;;;;15.54;59.27;101486.72;4986264;28;45189;-70
2023/05/14 09:46:45;;;;;;;;;40.75;34.50;;;;;15.54;59.29;101499.25;4988134;28;45348;-65
2023/05/14 09:49:11;;;;;;;;;47.25;36.00;;;;;15.65;59.84;101520.09;4990491;28;45431;-69
2023/05/14 09:51:37;;;;;;;;;49.25;35.50;;;;;15.60;59.57;101493.97;4991423;28;45115;-66
2023/05/14 09:54:04;;;;;;;;;40.75;33.75;;;;;15.63;59.03;101504.81;4988933;28;45043;-68
2023/05/14 09:56:30;;;;;;;;;38.00;32.25;;;;;15.71;58.96;101519.31;4982842;28;45635;-70
2023/05/14 09:58:55;;;;;;;;;45.50;36.25;;;;;15.66;59.02;101505.78;4988423;28;45235;-72
2023/05/14 10:01:21;;;;;;;;;39.75;33.00;;;;;15.77;58.48;101511.41;4982303;28;45006;-69
2023/05/14 10:03:47;;;;;;;;;42.00;35.50;;;;;15.67;58.01;101501.28;4996964;28;45487;-68
2023/05/14 10:06:16;;;;;;;;;38.75;31.75;;;;;15.81;58.82;101517.75;5012748;28;45208;-68
2023/05/14 10:08:44;;;;;;;;;45.50;38.00;;;;;15.90;58.97;101515.19;5005459;27;45086;-68
2023/05/14 10:11:19;;;;;;;;;45.00;35.75;;;;;16.00;58.26;101522.56;4976966;28;45290;-70
2023/05/14 10:13:54;;;;;;;;;48.00;32.25;;;;;16.13;57.60;101511.97;4977568;28;44965;-67
2023/05/14 10:16:30;;;;;;;;;55.25;42.25;;;;;16.11;58.14;101494.88;4989562;28;45645;-76
2023/05/14 10:19:18;;;;;;;;;46.00;35.25;;;;;16.31;56.76;101503.25;4990199;27;45061;-78
2023/05/14 10:21:51;;;;;;;;;42.75;35.75;;;;;16.31;56.77;101503.25;4991056;28;45197;-77
2023/05/14 10:24:18;;;;;;;;;43.50;33.25;;;;;16.37;57.28;101506.03;4988774;28;45200;-77
2023/05/14 10:26:44;;;;;;;;;46.00;34.50;;;;;16.43;56.16;101514.19;4978568;28;45656;-76
2023/05/14 10:29:10;;;;;;;;;41.25;34.25;;;;;16.49;56.45;101514.28;4984603;28;45226;-76
2023/05/14 10:31:45;;;;;;;;;49.00;35.75;;;;;16.58;56.36;101500.03;4981779;28;45262;-74
2023/05/14 10:34:37;;;;;;;;;42.50;35.75;;;;;16.64;56.44;101504.63;4989098;28;45265;-74
2023/05/14 10:37:26;;;;;;;;;42.75;34.00;;;;;16.64;55.66;101496.53;4983249;28;45710;-72
2023/05/14 10:40:04;;;;;;;;;53.50;40.75;;;;;16.68;56.10;101492.97;4980975;28;45209;-74
2023/05/14 10:42:38;;;;;;;;;40.75;33.50;;;;;16.69;55.82;101490.28;4985361;28;44978;-75
2023/05/14 10:45:07;;;;;;;;;47.00;33.75;;;;;16.69;55.49;101476.78;4989799;28;45421;-77
2023/05/14 10:47:34;;;;;;;;;45.75;38.00;;;;;16.88;54.84;101499.56;4977511;28;45663;-73
2023/05/14 10:50:02;;;;;;;;;45.50;35.50;;;;;16.97;54.20;101489.78;4990428;28;45291;-73
2023/05/14 10:52:31;;;;;;;;;40.00;34.75;;;;;17.04;54.81;101489.88;4988500;28;45084;-73
2023/05/14 10:55:02;;;;;;;;;39.75;35.50;;;;;17.09;53.75;101488.13;4980475;28;45295;-74
2023/05/14 10:57:30;;;;;;;;;41.50;35.25;;;;;17.18;54.24;101472.94;4986804;28;45296;-75
2023/05/14 10:59:59;;;;;;;;;46.75;38.75;;;;;17.34;54.14;101474.91;4979731;28;45428;-69
2023/05/14 11:02:25;;;;;;;;;46.00;36.25;;;;;17.35;53.51;101476.69;4971916;28;44918;-70
2023/05/14 11:04:57;;;;;;;;;44.00;33.75;;;;;17.28;53.41;101466.72;4984935;28;45124;-71
2023/05/14 11:07:27;;;;;;;;;43.25;36.75;;;;;17.39;53.66;101474.91;4988309;28;45099;-71